sensor_id;sensor_type;location;lat;lon;timestamp;pressure;altitude;pressure_sealevel;temperature;humidity
61035;BME280;46916;40.564;-7.958;2023-05-29T00:01:06;97231.53;;;15.92;99.29
61035;BME280;46916;40.564;-7.958;2023-05-29T00:03:27;97227.22;;;15.91;98.85
61035;BME280;46916;40.564;-7.958;2023-05-29T00:05:47;97224.75;;;15.90;99.11
61035;BME280;46916;40.564;-7.958;2023-05-29T00:08:06;97219.81;;;15.87;99.18
61035;BME280;46916;40.564;-7.958;2023-05-29T00:10:09;97216.16;;;15.88;99.23
61035;BME280;46916;40.564;-7.958;2023-05-29T00:12:10;97215.19;;;15.89;98.90
61035;BME280;46916;40.564;-7.958;2023-05-29T00:14:30;97209.09;;;15.88;99.06
61035;BME280;46916;40.564;-7.958;2023-05-29T00:16:50;97215.03;;;15.90;99.21
61035;BME280;46916;40.564;-7.958;2023-05-29T00:19:28;97215.19;;;15.89;99.02
61035;BME280;46916;40.564;-7.958;2023-05-29T00:22:08;97204.97;;;15.85;99.06
61035;BME280;46916;40.564;-7.958;2023-05-29T00:24:27;97206.59;;;15.87;99.06
61035;BME280;46916;40.564;-7.958;2023-05-29T00:26:46;97196.22;;;15.85;99.42
61035;BME280;46916;40.564;-7.958;2023-05-29T00:29:25;97201.31;;;15.87;99.43
61035;BME280;46916;40.564;-7.958;2023-05-29T00:31:44;97205.44;;;15.89;99.56
61035;BME280;46916;40.564;-7.958;2023-05-29T00:34:04;97202.31;;;15.85;99.58
61035;BME280;46916;40.564;-7.958;2023-05-29T00:36:24;97199.50;;;15.87;99.77
61035;BME280;46916;40.564;-7.958;2023-05-29T00:38:44;97196.72;;;15.89;99.75
61035;BME280;46916;40.564;-7.958;2023-05-29T00:41:04;97197.53;;;15.89;99.50
61035;BME280;46916;40.564;-7.958;2023-05-29T00:43:24;97200.31;;;15.88;99.53
61035;BME280;46916;40.564;-7.958;2023-05-29T00:45:44;97199.34;;;15.89;99.52
61035;BME280;46916;40.564;-7.958;2023-05-29T00:48:05;97193.25;;;15.88;99.23
61035;BME280;46916;40.564;-7.958;2023-05-29T00:50:25;97187.13;;;15.88;99.19
61035;BME280;46916;40.564;-7.958;2023-05-29T00:52:46;97188.94;;;15.87;99.44
61035;BME280;46916;40.564;-7.958;2023-05-29T00:55:06;97183.66;;;15.87;99.31
61035;BME280;46916;40.564;-7.958;2023-05-29T00:57:26;97180.88;;;15.89;99.37
61035;BME280;46916;40.564;-7.958;2023-05-29T00:59:47;97173.75;;;15.89;99.49
61035;BME280;46916;40.564;-7.958;2023-05-29T01:02:06;97170.31;;;15.89;99.21
61035;BME280;46916;40.564;-7.958;2023-05-29T01:04:28;97165.03;;;15.89;99.43
61035;BME280;46916;40.564;-7.958;2023-05-29T01:06:47;97164.03;;;15.90;99.29
61035;BME280;46916;40.564;-7.958;2023-05-29T01:09:23;97160.56;;;15.89;99.13
61035;BME280;46916;40.564;-7.958;2023-05-29T01:18:07;97159.06;;;15.87;99.10
61035;BME280;46916;40.564;-7.958;2023-05-29T01:20:38;97151.16;;;15.87;99.12
61035;BME280;46916;40.564;-7.958;2023-05-29T01:25:29;97143.22;;;15.87;99.12
61035;BME280;46916;40.564;-7.958;2023-05-29T01:27:35;97147.69;;;15.86;98.95
61035;BME280;46916;40.564;-7.958;2023-05-29T01:29:55;97151.16;;;15.87;99.07
61035;BME280;46916;40.564;-7.958;2023-05-29T01:32:16;97151.97;;;15.87;98.99
61035;BME280;46916;40.564;-7.958;2023-05-29T01:34:36;97150.16;;;15.88;98.89
61035;BME280;46916;40.564;-7.958;2023-05-29T01:36:55;97150.31;;;15.86;99.01
61035;BME280;46916;40.564;-7.958;2023-05-29T01:39:15;97145.88;;;15.87;99.00
61035;BME280;46916;40.564;-7.958;2023-05-29T01:41:36;97146.03;;;15.85;99.31
61035;BME280;46916;40.564;-7.958;2023-05-29T01:44:21;97148.69;;;15.85;99.56
61035;BME280;46916;40.564;-7.958;2023-05-29T01:47:01;97143.56;;;15.83;99.88
61035;BME280;46916;40.564;-7.958;2023-05-29T01:49:47;97140.75;;;15.85;99.59
61035;BME280;46916;40.564;-7.958;2023-05-29T01:52:09;97136.50;;;15.84;99.73
61035;BME280;46916;40.564;-7.958;2023-05-29T01:54:29;97130.53;;;15.82;99.56
61035;BME280;46916;40.564;-7.958;2023-05-29T01:56:49;97128.72;;;15.82;100.00
61035;BME280;46916;40.564;-7.958;2023-05-29T01:59:10;97127.91;;;15.82;99.85
61035;BME280;46916;40.564;-7.958;2023-05-29T02:01:32;97127.91;;;15.82;100.00
61035;BME280;46916;40.564;-7.958;2023-05-29T02:04:05;97126.25;;;15.81;99.95
61035;BME280;46916;40.564;-7.958;2023-05-29T02:06:54;97128.91;;;15.81;100.00
61035;BME280;46916;40.564;-7.958;2023-05-29T02:09:13;97121.47;;;15.76;100.00
61035;BME280;46916;40.564;-7.958;2023-05-29T02:11:33;97119.66;;;15.77;100.00
61035;BME280;46916;40.564;-7.958;2023-05-29T02:14:25;97110.75;;;15.78;100.00
61035;BME280;46916;40.564;-7.958;2023-05-29T02:16:44;97113.19;;;15.79;100.00
61035;BME280;46916;40.564;-7.958;2023-05-29T02:19:04;97118.66;;;15.78;100.00
61035;BME280;46916;40.564;-7.958;2023-05-29T02:21:23;97122.94;;;15.79;100.00
61035;BME280;46916;40.564;-7.958;2023-05-29T02:23:43;97125.78;;;15.77;100.00
61035;BME280;46916;40.564;-7.958;2023-05-29T02:26:02;97123.13;;;15.77;100.00
61035;BME280;46916;40.564;-7.958;2023-05-29T02:28:22;97120.50;;;15.77;100.00
61035;BME280;46916;40.564;-7.958;2023-05-29T02:30:41;97128.22;;;15.79;100.00
61035;BME280;46916;40.564;-7.958;2023-05-29T02:33:01;97126.59;;;15.78;100.00
61035;BME280;46916;40.564;-7.958;2023-05-29T02:35:53;97123.75;;;15.79;100.00
61035;BME280;46916;40.564;-7.958;2023-05-29T02:38:32;97126.59;;;15.78;100.00
61035;BME280;46916;40.564;-7.958;2023-05-29T02:41:20;97129.03;;;15.79;100.00
61035;BME280;46916;40.564;-7.958;2023-05-29T02:43:59;97129.41;;;15.76;100.00
61035;BME280;46916;40.564;-7.958;2023-05-29T02:46:18;97124.47;;;15.73;100.00
61035;BME280;46916;40.564;-7.958;2023-05-29T02:48:38;97118.19;;;15.74;100.00
61035;BME280;46916;40.564;-7.958;2023-05-29T02:51:22;97122.63;;;15.74;100.00
61035;BME280;46916;40.564;-7.958;2023-05-29T02:53:44;97121.16;;;15.71;100.00
61035;BME280;46916;40.564;-7.958;2023-05-29T02:56:04;97124.97;;;15.69;100.00
61035;BME280;46916;40.564;-7.958;2023-05-29T02:58:23;97121.84;;;15.65;100.00
61035;BME280;46916;40.564;-7.958;2023-05-29T03:00:42;97123.97;;;15.61;100.00
61035;BME280;46916;40.564;-7.958;2023-05-29T03:03:15;97118.19;;;15.58;100.00
61035;BME280;46916;40.564;-7.958;2023-05-29T03:05:34;97125.09;;;15.59;100.00
61035;BME280;46916;40.564;-7.958;2023-05-29T03:07:54;97126.09;;;15.58;100.00
61035;BME280;46916;40.564;-7.958;2023-05-29T03:10:14;97126.44;;;15.55;100.00
61035;BME280;46916;40.564;-7.958;2023-05-29T03:12:37;97123.66;;;15.56;100.00
61035;BME280;46916;40.564;-7.958;2023-05-29T03:14:56;97130.38;;;15.59;100.00
61035;BME280;46916;40.564;-7.958;2023-05-29T03:17:16;97124.28;;;15.58;100.00
61035;BME280;46916;40.564;-7.958;2023-05-29T03:19:35;97128.59;;;15.59;100.00
61035;BME280;46916;40.564;-7.958;2023-05-29T03:21:56;97129.41;;;15.60;100.00
61035;BME280;46916;40.564;-7.958;2023-05-29T03:24:16;97121.13;;;15.63;100.00
61035;BME280;46916;40.564;-7.958;2023-05-29T03:26:36;97124.47;;;15.65;100.00
61035;BME280;46916;40.564;-7.958;2023-05-29T03:28:56;97118.69;;;15.61;100.00
61035;BME280;46916;40.564;-7.958;2023-05-29T03:31:15;97129.25;;;15.61;100.00
61035;BME280;46916;40.564;-7.958;2023-05-29T03:33:50;97130.06;;;15.62;100.00
61035;BME280;46916;40.564;-7.958;2023-05-29T03:36:10;97128.94;;;15.65;100.00
61035;BME280;46916;40.564;-7.958;2023-05-29T03:38:29;97122.66;;;15.66;100.00
61035;BME280;46916;40.564;-7.958;2023-05-29T03:40:49;97136.69;;;15.66;100.00
61035;BME280;46916;40.564;-7.958;2023-05-29T03:43:08;97125.31;;;15.66;100.00
61035;BME280;46916;40.564;-7.958;2023-05-29T03:45:28;97129.59;;;15.67;100.00
61035;BME280;46916;40.564;-7.958;2023-05-29T03:47:48;97122.47;;;15.67;100.00
61035;BME280;46916;40.564;-7.958;2023-05-29T03:50:08;97127.75;;;15.67;100.00
61035;BME280;46916;40.564;-7.958;2023-05-29T03:52:27;97121.50;;;15.68;100.00
61035;BME280;46916;40.564;-7.958;2023-05-29T03:54:47;97116.38;;;15.67;100.00
61035;BME280;46916;40.564;-7.958;2023-05-29T03:57:07;97119.03;;;15.67;100.00
61035;BME280;46916;40.564;-7.958;2023-05-29T03:59:28;97124.97;;;15.69;100.00
61035;BME280;46916;40.564;-7.958;2023-05-29T04:01:47;97124.16;;;15.68;100.00
61035;BME280;46916;40.564;-7.958;2023-05-29T04:04:07;97115.41;;;15.68;100.00
61035;BME280;46916;40.564;-7.958;2023-05-29T04:06:26;97115.75;;;15.65;100.00
61035;BME280;46916;40.564;-7.958;2023-05-29T04:08:46;97112.78;;;15.68;100.00
61035;BME280;46916;40.564;-7.958;2023-05-29T04:11:05;97121.66;;;15.67;100.00
61035;BME280;46916;40.564;-7.958;2023-05-29T04:13:24;97119.03;;;15.67;100.00
61035;BME280;46916;40.564;-7.958;2023-05-29T04:18:22;97115.75;;;15.65;100.00
61035;BME280;46916;40.564;-7.958;2023-05-29T04:20:41;97107.81;;;15.65;100.00
61035;BME280;46916;40.564;-7.958;2023-05-29T04:23:01;97103.50;;;15.64;99.70
61035;BME280;46916;40.564;-7.958;2023-05-29T04:25:20;97106.16;;;15.64;99.91
61035;BME280;46916;40.564;-7.958;2023-05-29T04:27:40;97105.19;;;15.65;100.00
61035;BME280;46916;40.564;-7.958;2023-05-29T04:29:59;97107.94;;;15.63;100.00
61035;BME280;46916;40.564;-7.958;2023-05-29T04:32:34;97104.34;;;15.64;99.77
61035;BME280;46916;40.564;-7.958;2023-05-29T04:34:55;97102.53;;;15.65;100.00
61035;BME280;46916;40.564;-7.958;2023-05-29T04:37:15;97102.53;;;15.65;100.00
61035;BME280;46916;40.564;-7.958;2023-05-29T04:39:34;97104.34;;;15.64;100.00
61035;BME280;46916;40.564;-7.958;2023-05-29T04:41:54;97111.28;;;15.65;99.96
61035;BME280;46916;40.564;-7.958;2023-05-29T04:44:15;97099.06;;;15.64;99.87
61035;BME280;46916;40.564;-7.958;2023-05-29T04:46:35;97096.41;;;15.64;99.70
61035;BME280;46916;40.564;-7.958;2023-05-29T04:48:55;97095.09;;;15.60;99.82
61035;BME280;46916;40.564;-7.958;2023-05-29T04:51:15;97098.38;;;15.62;99.75
61035;BME280;46916;40.564;-7.958;2023-05-29T04:53:37;97095.75;;;15.62;99.85
61035;BME280;46916;40.564;-7.958;2023-05-29T04:55:57;97095.91;;;15.60;100.00
61035;BME280;46916;40.564;-7.958;2023-05-29T04:58:16;97096.94;;;15.59;99.85
61035;BME280;46916;40.564;-7.958;2023-05-29T05:00:35;97102.19;;;15.59;99.35
61035;BME280;46916;40.564;-7.958;2023-05-29T05:03:16;97104.66;;;15.61;99.46
61035;BME280;46916;40.564;-7.958;2023-05-29T05:05:36;97097.91;;;15.58;99.25
61035;BME280;46916;40.564;-7.958;2023-05-29T05:07:55;97108.81;;;15.55;99.79
61035;BME280;46916;40.564;-7.958;2023-05-29T05:10:35;97114.09;;;15.55;99.54
61035;BME280;46916;40.564;-7.958;2023-05-29T05:13:31;97110.47;;;15.48;100.00
61035;BME280;46916;40.564;-7.958;2023-05-29T05:18:28;97111.94;;;15.43;100.00
61035;BME280;46916;40.564;-7.958;2023-05-29T05:20:47;97120.22;;;15.40;100.00
61035;BME280;46916;40.564;-7.958;2023-05-29T05:23:07;97122.03;;;15.39;100.00
61035;BME280;46916;40.564;-7.958;2023-05-29T05:25:27;97121.38;;;15.37;100.00
61035;BME280;46916;40.564;-7.958;2023-05-29T05:27:46;97131.91;;;15.37;100.00
61035;BME280;46916;40.564;-7.958;2023-05-29T05:30:06;97126.81;;;15.35;100.00
61035;BME280;46916;40.564;-7.958;2023-05-29T05:32:26;97128.78;;;15.33;100.00
61035;BME280;46916;40.564;-7.958;2023-05-29T05:34:45;97129.28;;;15.29;100.00
61035;BME280;46916;40.564;-7.958;2023-05-29T05:37:04;97133.94;;;15.27;100.00
61035;BME280;46916;40.564;-7.958;2023-05-29T05:39:23;97128.28;;;15.30;100.00
61035;BME280;46916;40.564;-7.958;2023-05-29T05:41:43;97129.13;;;15.30;100.00
61035;BME280;46916;40.564;-7.958;2023-05-29T05:44:02;97135.25;;;15.31;100.00
61035;BME280;46916;40.564;-7.958;2023-05-29T05:46:22;97141.16;;;15.33;100.00
61035;BME280;46916;40.564;-7.958;2023-05-29T05:48:42;97135.56;;;15.36;100.00
61035;BME280;46916;40.564;-7.958;2023-05-29T05:51:20;97141.47;;;15.38;100.00
61035;BME280;46916;40.564;-7.958;2023-05-29T05:53:39;97139.84;;;15.37;100.00
61035;BME280;46916;40.564;-7.958;2023-05-29T05:55:59;97137.88;;;15.39;100.00
61035;BME280;46916;40.564;-7.958;2023-05-29T05:58:18;97142.97;;;15.41;100.00
61035;BME280;46916;40.564;-7.958;2023-05-29T06:00:39;97137.88;;;15.39;100.00
61035;BME280;46916;40.564;-7.958;2023-05-29T06:03:17;97135.22;;;15.39;100.00
61035;BME280;46916;40.564;-7.958;2023-05-29T06:05:53;97142.16;;;15.40;100.00
61035;BME280;46916;40.564;-7.958;2023-05-29T06:08:13;97143.63;;;15.43;100.00
61035;BME280;46916;40.564;-7.958;2023-05-29T06:10:33;97137.50;;;15.42;100.00
61035;BME280;46916;40.564;-7.958;2023-05-29T06:12:52;97131.91;;;15.37;100.00
61035;BME280;46916;40.564;-7.958;2023-05-29T06:15:12;97133.06;;;15.34;100.00
61035;BME280;46916;40.564;-7.958;2023-05-29T06:17:32;97139.53;;;15.32;100.00
61035;BME280;46916;40.564;-7.958;2023-05-29T06:19:52;97138.03;;;15.29;100.00
61035;BME280;46916;40.564;-7.958;2023-05-29T06:22:11;97126.84;;;15.19;100.00
61035;BME280;46916;40.564;-7.958;2023-05-29T06:24:31;97135.25;;;15.23;100.00
61035;BME280;46916;40.564;-7.958;2023-05-29T06:26:50;97143.16;;;15.23;100.00
61035;BME280;46916;40.564;-7.958;2023-05-29T06:29:10;97149.91;;;15.25;100.00
61035;BME280;46916;40.564;-7.958;2023-05-29T06:31:29;97143.81;;;15.25;100.00
61035;BME280;46916;40.564;-7.958;2023-05-29T06:33:49;97153.53;;;15.24;100.00
61035;BME280;46916;40.564;-7.958;2023-05-29T06:36:09;97151.72;;;15.25;100.00
61035;BME280;46916;40.564;-7.958;2023-05-29T06:38:29;97154.69;;;15.22;100.00
61035;BME280;46916;40.564;-7.958;2023-05-29T06:40:49;97158.00;;;15.24;100.00
61035;BME280;46916;40.564;-7.958;2023-05-29T06:43:08;97167.56;;;15.25;100.00
61035;BME280;46916;40.564;-7.958;2023-05-29T06:45:28;97166.56;;;15.26;100.00
61035;BME280;46916;40.564;-7.958;2023-05-29T06:47:48;97164.09;;;15.24;100.00
61035;BME280;46916;40.564;-7.958;2023-05-29T06:50:08;97166.56;;;15.26;100.00
61035;BME280;46916;40.564;-7.958;2023-05-29T06:52:27;97167.06;;;15.29;100.00
61035;BME280;46916;40.564;-7.958;2023-05-29T06:54:47;97170.19;;;15.33;100.00
61035;BME280;46916;40.564;-7.958;2023-05-29T06:57:07;97168.88;;;15.37;100.00
61035;BME280;46916;40.564;-7.958;2023-05-29T06:59:26;97172.19;;;15.39;100.00
61035;BME280;46916;40.564;-7.958;2023-05-29T07:01:47;97170.19;;;15.41;100.00
61035;BME280;46916;40.564;-7.958;2023-05-29T07:04:06;97166.72;;;15.41;100.00
61035;BME280;46916;40.564;-7.958;2023-05-29T07:06:26;97177.91;;;15.43;100.00
61035;BME280;46916;40.564;-7.958;2023-05-29T07:08:45;97171.81;;;15.42;100.00
61035;BME280;46916;40.564;-7.958;2023-05-29T07:11:05;97169.03;;;15.44;100.00
61035;BME280;46916;40.564;-7.958;2023-05-29T07:13:25;97179.91;;;15.57;99.70
61035;BME280;46916;40.564;-7.958;2023-05-29T07:15:46;97178.78;;;15.68;98.51
61035;BME280;46916;40.564;-7.958;2023-05-29T07:18:05;97178.56;;;15.77;97.51
61035;BME280;46916;40.564;-7.958;2023-05-29T07:20:25;97178.56;;;15.85;96.42
61035;BME280;46916;40.564;-7.958;2023-05-29T07:22:45;97183.81;;;15.94;95.60
61035;BME280;46916;40.564;-7.958;2023-05-29T07:25:05;97173.75;;;15.97;95.21
61035;BME280;46916;40.564;-7.958;2023-05-29T07:27:24;97170.09;;;15.98;94.91
61035;BME280;46916;40.564;-7.958;2023-05-29T07:29:44;97172.22;;;16.03;94.53
61035;BME280;46916;40.564;-7.958;2023-05-29T07:32:03;97164.78;;;16.06;95.09
61035;BME280;46916;40.564;-7.958;2023-05-29T07:34:22;97166.75;;;16.13;94.47
61035;BME280;46916;40.564;-7.958;2023-05-29T07:37:04;97169.72;;;16.18;93.81
61035;BME280;46916;40.564;-7.958;2023-05-29T07:39:24;97166.06;;;16.19;93.78
61035;BME280;46916;40.564;-7.958;2023-05-29T07:41:43;97172.84;;;16.21;93.97
61035;BME280;46916;40.564;-7.958;2023-05-29T07:44:02;97177.13;;;16.22;94.00
61035;BME280;46916;40.564;-7.958;2023-05-29T07:46:22;97174.28;;;16.24;94.11
61035;BME280;46916;40.564;-7.958;2023-05-29T07:48:42;97183.53;;;16.28;93.83
61035;BME280;46916;40.564;-7.958;2023-05-29T07:51:02;97179.91;;;16.29;93.57
61035;BME280;46916;40.564;-7.958;2023-05-29T07:53:43;97179.91;;;16.29;93.82
61035;BME280;46916;40.564;-7.958;2023-05-29T07:55:44;97172.47;;;16.24;93.80
61035;BME280;46916;40.564;-7.958;2023-05-29T07:57:46;97176.25;;;16.30;93.72
61035;BME280;46916;40.564;-7.958;2023-05-29T07:59:49;97173.63;;;16.30;93.89
61035;BME280;46916;40.564;-7.958;2023-05-29T08:01:50;97170.97;;;16.30;93.78
61035;BME280;46916;40.564;-7.958;2023-05-29T08:04:11;97169.97;;;16.31;93.86
61035;BME280;46916;40.564;-7.958;2023-05-29T08:06:11;97174.09;;;16.33;93.72
61035;BME280;46916;40.564;-7.958;2023-05-29T08:08:13;97177.56;;;16.34;93.81
61035;BME280;46916;40.564;-7.958;2023-05-29T08:10:15;97175.75;;;16.34;93.98
61035;BME280;46916;40.564;-7.958;2023-05-29T08:12:15;97180.22;;;16.34;94.15
61035;BME280;46916;40.564;-7.958;2023-05-29T08:14:17;97189.78;;;16.35;94.01
61035;BME280;46916;40.564;-7.958;2023-05-29T08:16:18;97178.56;;;16.33;93.88
61035;BME280;46916;40.564;-7.958;2023-05-29T08:18:19;97188.13;;;16.34;93.69
61035;BME280;46916;40.564;-7.958;2023-05-29T08:20:39;97174.09;;;16.33;93.36
61035;BME280;46916;40.564;-7.958;2023-05-29T08:22:40;97173.91;;;16.35;93.07
61035;BME280;46916;40.564;-7.958;2023-05-29T08:24:41;97183.16;;;16.39;92.89
61035;BME280;46916;40.564;-7.958;2023-05-29T08:26:42;97182.16;;;16.40;92.90
61035;BME280;46916;40.564;-7.958;2023-05-29T08:28:44;97177.69;;;16.41;92.45
61035;BME280;46916;40.564;-7.958;2023-05-29T08:30:45;97175.88;;;16.41;92.75
61035;BME280;46916;40.564;-7.958;2023-05-29T08:32:46;97184.78;;;16.40;92.66
61035;BME280;46916;40.564;-7.958;2023-05-29T08:34:47;97177.88;;;16.39;92.69
61035;BME280;46916;40.564;-7.958;2023-05-29T08:36:48;97184.78;;;16.40;92.96
61035;BME280;46916;40.564;-7.958;2023-05-29T08:39:10;97190.91;;;16.41;93.30
61035;BME280;46916;40.564;-7.958;2023-05-29T08:41:16;97183.81;;;16.41;93.05
61035;BME280;46916;40.564;-7.958;2023-05-29T08:43:21;97191.88;;;16.48;93.07
61035;BME280;46916;40.564;-7.958;2023-05-29T08:45:24;97190.72;;;16.50;92.85
61035;BME280;46916;40.564;-7.958;2023-05-29T08:47:27;97186.06;;;16.52;93.20
61035;BME280;46916;40.564;-7.958;2023-05-29T08:49:51;97178.13;;;16.52;92.88
61035;BME280;46916;40.564;-7.958;2023-05-29T08:51:59;97178.94;;;16.53;93.01
61035;BME280;46916;40.564;-7.958;2023-05-29T08:54:02;97173.84;;;16.51;93.52
61035;BME280;46916;40.564;-7.958;2023-05-29T08:56:03;97179.78;;;16.53;93.61
61035;BME280;46916;40.564;-7.958;2023-05-29T08:58:05;97176.16;;;16.54;93.63
61035;BME280;46916;40.564;-7.958;2023-05-29T09:00:25;97168.84;;;16.56;93.42
61035;BME280;46916;40.564;-7.958;2023-05-29T09:02:29;97177.25;;;16.60;93.26
61035;BME280;46916;40.564;-7.958;2023-05-29T09:04:30;97173.47;;;16.63;93.42
61035;BME280;46916;40.564;-7.958;2023-05-29T09:06:31;97168.84;;;16.56;94.02
61035;BME280;46916;40.564;-7.958;2023-05-29T09:08:31;97178.09;;;16.60;93.31
61035;BME280;46916;40.564;-7.958;2023-05-29T09:10:34;97168.84;;;16.56;94.26
61035;BME280;46916;40.564;-7.958;2023-05-29T09:12:35;97171.34;;;16.58;93.89
61035;BME280;46916;40.564;-7.958;2023-05-29T09:14:43;97179.09;;;16.59;93.76
61035;BME280;46916;40.564;-7.958;2023-05-29T09:16:44;97179.75;;;16.62;93.63
61035;BME280;46916;40.564;-7.958;2023-05-29T09:19:07;97167.84;;;16.66;93.79
61035;BME280;46916;40.564;-7.958;2023-05-29T09:21:08;97177.22;;;16.68;93.45
61035;BME280;46916;40.564;-7.958;2023-05-29T09:23:10;97169.94;;;16.70;93.27
61035;BME280;46916;40.564;-7.958;2023-05-29T09:25:10;97176.88;;;16.71;93.35
61035;BME280;46916;40.564;-7.958;2023-05-29T09:27:11;97167.63;;;16.75;92.97
61035;BME280;46916;40.564;-7.958;2023-05-29T09:29:12;97172.56;;;16.78;92.47
61035;BME280;46916;40.564;-7.958;2023-05-29T09:31:16;97172.03;;;16.83;92.33
61035;BME280;46916;40.564;-7.958;2023-05-29T09:33:21;97171.22;;;16.82;92.11
61035;BME280;46916;40.564;-7.958;2023-05-29T09:35:22;97169.56;;;16.81;91.83
61035;BME280;46916;40.564;-7.958;2023-05-29T09:37:23;97173.69;;;16.84;91.67
61035;BME280;46916;40.564;-7.958;2023-05-29T09:39:23;97173.69;;;16.84;91.28
61035;BME280;46916;40.564;-7.958;2023-05-29T09:41:24;97167.38;;;16.85;91.10
61035;BME280;46916;40.564;-7.958;2023-05-29T09:43:25;97172.88;;;16.83;91.31
61035;BME280;46916;40.564;-7.958;2023-05-29T09:45:25;97172.53;;;16.87;91.43
61035;BME280;46916;40.564;-7.958;2023-05-29T09:47:45;97179.44;;;16.88;91.17
61035;BME280;46916;40.564;-7.958;2023-05-29T09:49:46;97186.91;;;16.84;91.38
61035;BME280;46916;40.564;-7.958;2023-05-29T09:51:46;97189.56;;;16.84;91.51
61035;BME280;46916;40.564;-7.958;2023-05-29T09:53:50;97185.28;;;16.83;91.45
61035;BME280;46916;40.564;-7.958;2023-05-29T09:55:55;97188.72;;;16.83;91.48
61035;BME280;46916;40.564;-7.958;2023-05-29T09:57:56;97189.06;;;16.80;91.24
61035;BME280;46916;40.564;-7.958;2023-05-29T09:59:58;97196.19;;;16.80;91.19
61035;BME280;46916;40.564;-7.958;2023-05-29T10:02:02;97190.91;;;16.80;91.38
61035;BME280;46916;40.564;-7.958;2023-05-29T10:04:04;97187.25;;;16.81;90.86
61035;BME280;46916;40.564;-7.958;2023-05-29T10:06:05;97184.78;;;16.79;90.48
61035;BME280;46916;40.564;-7.958;2023-05-29T10:08:12;97186.78;;;16.77;90.20
61035;BME280;46916;40.564;-7.958;2023-05-29T10:10:14;97185.13;;;16.76;90.22
61035;BME280;46916;40.564;-7.958;2023-05-29T10:12:19;97184.31;;;16.76;90.30
61035;BME280;46916;40.564;-7.958;2023-05-29T10:14:24;97187.28;;;16.73;90.46
61035;BME280;46916;40.564;-7.958;2023-05-29T10:16:27;97188.13;;;16.73;90.43
61035;BME280;46916;40.564;-7.958;2023-05-29T10:18:32;97189.78;;;16.74;90.30
61035;BME280;46916;40.564;-7.958;2023-05-29T10:20:36;97191.44;;;16.75;90.28
61035;BME280;46916;40.564;-7.958;2023-05-29T10:22:41;97194.06;;;16.75;90.36
61035;BME280;46916;40.564;-7.958;2023-05-29T10:24:45;97195.91;;;16.75;90.31
61035;BME280;46916;40.564;-7.958;2023-05-29T10:26:49;97197.88;;;16.73;91.03
61035;BME280;46916;40.564;-7.958;2023-05-29T10:36:22;97195.13;;;16.58;94.18
61035;BME280;46916;40.564;-7.958;2023-05-29T10:38:24;97191.50;;;16.59;93.95
61035;BME280;46916;40.564;-7.958;2023-05-29T10:40:26;97195.44;;;16.63;93.38
61035;BME280;46916;40.564;-7.958;2023-05-29T10:42:48;97192.59;;;16.65;93.03
61035;BME280;46916;40.564;-7.958;2023-05-29T10:45:08;97189.81;;;16.66;92.60
61035;BME280;46916;40.564;-7.958;2023-05-29T10:47:28;97192.44;;;16.66;92.57
61035;BME280;46916;40.564;-7.958;2023-05-29T10:49:50;97196.91;;;16.66;92.35
61035;BME280;46916;40.564;-7.958;2023-05-29T10:52:10;97190.81;;;16.57;92.14
61035;BME280;46916;40.564;-7.958;2023-05-29T10:54:40;97192.00;;;16.54;92.68
61035;BME280;46916;40.564;-7.958;2023-05-29T10:56:41;97194.94;;;16.59;92.69
61035;BME280;46916;40.564;-7.958;2023-05-29T10:58:43;97194.63;;;16.63;92.52
61035;BME280;46916;40.564;-7.958;2023-05-29T11:01:02;97193.25;;;16.67;92.54
61035;BME280;46916;40.564;-7.958;2023-05-29T11:03:04;97195.56;;;16.70;92.37
61035;BME280;46916;40.564;-7.958;2023-05-29T11:05:26;97198.84;;;16.72;92.03
61035;BME280;46916;40.564;-7.958;2023-05-29T11:07:33;97191.25;;;16.77;91.91
61035;BME280;46916;40.564;-7.958;2023-05-29T11:09:37;97196.38;;;16.78;91.71
61035;BME280;46916;40.564;-7.958;2023-05-29T11:11:38;97192.06;;;16.77;91.75
61035;BME280;46916;40.564;-7.958;2023-05-29T11:13:42;97187.63;;;16.78;91.59
61035;BME280;46916;40.564;-7.958;2023-05-29T11:18:29;97182.34;;;16.78;91.78
61035;BME280;46916;40.564;-7.958;2023-05-29T11:24:41;97180.63;;;16.85;91.95
61035;BME280;46916;40.564;-7.958;2023-05-29T11:26:45;97176.28;;;16.92;91.60
61035;BME280;46916;40.564;-7.958;2023-05-29T11:28:45;97174.72;;;16.98;91.50
61035;BME280;46916;40.564;-7.958;2023-05-29T11:30:47;97174.59;;;16.99;91.37
61035;BME280;46916;40.564;-7.958;2023-05-29T11:32:48;97168.63;;;16.97;91.46
61035;BME280;46916;40.564;-7.958;2023-05-29T11:34:52;97164.34;;;16.96;91.45
61035;BME280;46916;40.564;-7.958;2023-05-29T11:36:57;97164.34;;;16.96;92.58
61035;BME280;46916;40.564;-7.958;2023-05-29T11:38:59;97169.97;;;16.93;92.22
61035;BME280;46916;40.564;-7.958;2023-05-29T11:41:01;97170.34;;;16.90;92.69
61035;BME280;46916;40.564;-7.958;2023-05-29T11:43:02;97166.22;;;16.88;93.04
61035;BME280;46916;40.564;-7.958;2023-05-29T11:45:14;97164.59;;;16.87;92.92
61035;BME280;46916;40.564;-7.958;2023-05-29T11:47:15;97167.88;;;16.89;92.92
61035;BME280;46916;40.564;-7.958;2023-05-29T11:49:28;97176.63;;;16.89;92.77
61035;BME280;46916;40.564;-7.958;2023-05-29T11:51:29;97173.34;;;16.87;93.11
61035;BME280;46916;40.564;-7.958;2023-05-29T11:53:30;97166.56;;;16.84;93.19
61035;BME280;46916;40.564;-7.958;2023-05-29T11:55:31;97171.03;;;16.84;93.31
61035;BME280;46916;40.564;-7.958;2023-05-29T11:57:31;97166.75;;;16.83;93.49
61035;BME280;46916;40.564;-7.958;2023-05-29T11:59:32;97167.75;;;16.82;94.19
61035;BME280;46916;40.564;-7.958;2023-05-29T12:01:34;97173.41;;;16.79;93.72
61035;BME280;46916;40.564;-7.958;2023-05-29T12:03:41;97170.47;;;16.74;94.02
61035;BME280;46916;40.564;-7.958;2023-05-29T12:05:47;97176.22;;;16.69;95.10
61035;BME280;46916;40.564;-7.958;2023-05-29T12:07:55;97173.13;;;16.66;94.79
61035;BME280;46916;40.564;-7.958;2023-05-29T12:09:56;97173.63;;;16.61;95.24
61035;BME280;46916;40.564;-7.958;2023-05-29T12:12:04;97164.38;;;16.57;95.39
61035;BME280;46916;40.564;-7.958;2023-05-29T12:14:04;97165.38;;;16.56;95.58